sensor_id;sensor_type;location;lat;lon;timestamp;temperature;humidity
26035;DHT22;13809;48.632;11.576;2022-12-18T00:02:18;-1.90;40.00
26035;DHT22;13809;48.632;11.576;2022-12-18T00:07:21;-1.80;40.80
26035;DHT22;13809;48.632;11.576;2022-12-18T00:12:24;-1.70;40.10
26035;DHT22;13809;48.632;11.576;2022-12-18T00:17:32;-1.70;40.10
26035;DHT22;13809;48.632;11.576;2022-12-18T00:22:35;-1.60;40.30
26035;DHT22;13809;48.632;11.576;2022-12-18T00:27:38;-1.50;40.20
26035;DHT22;13809;48.632;11.576;2022-12-18T00:32:43;-1.50;40.20
26035;DHT22;13809;48.632;11.576;2022-12-18T00:37:46;-1.50;40.30
26035;DHT22;13809;48.632;11.576;2022-12-18T00:42:49;-1.40;40.20
26035;DHT22;13809;48.632;11.576;2022-12-18T00:47:59;-1.40;40.20
26035;DHT22;13809;48.632;11.576;2022-12-18T00:53:02;-1.40;40.40
26035;DHT22;13809;48.632;11.576;2022-12-18T00:58:05;-1.40;40.30
26035;DHT22;13809;48.632;11.576;2022-12-18T01:03:13;-1.40;41.10
26035;DHT22;13809;48.632;11.576;2022-12-18T01:08:16;-1.30;40.80
26035;DHT22;13809;48.632;11.576;2022-12-18T01:13:19;-1.30;40.70
26035;DHT22;13809;48.632;11.576;2022-12-18T01:18:24;-1.20;40.70
26035;DHT22;13809;48.632;11.576;2022-12-18T01:23:27;-1.20;40.80
26035;DHT22;13809;48.632;11.576;2022-12-18T01:28:30;-1.20;40.80
26035;DHT22;13809;48.632;11.576;2022-12-18T01:33:35;-1.20;40.90
26035;DHT22;13809;48.632;11.576;2022-12-18T01:38:38;-1.20;41.00
26035;DHT22;13809;48.632;11.576;2022-12-18T01:43:48;-1.10;40.90
26035;DHT22;13809;48.632;11.576;2022-12-18T01:48:55;-1.20;41.20
26035;DHT22;13809;48.632;11.576;2022-12-18T01:53:59;-1.10;41.30
26035;DHT22;13809;48.632;11.576;2022-12-18T01:59:04;-1.10;41.10
26035;DHT22;13809;48.632;11.576;2022-12-18T02:04:21;-1.10;41.20
26035;DHT22;13809;48.632;11.576;2022-12-18T02:09:30;-1.10;41.50
26035;DHT22;13809;48.632;11.576;2022-12-18T02:14:38;-1.10;41.30
26035;DHT22;13809;48.632;11.576;2022-12-18T02:19:59;-1.10;41.30
26035;DHT22;13809;48.632;11.576;2022-12-18T02:25:13;-1.10;41.50
26035;DHT22;13809;48.632;11.576;2022-12-18T02:30:23;-1.10;41.60
26035;DHT22;13809;48.632;11.576;2022-12-18T02:35:29;-1.10;41.40
26035;DHT22;13809;48.632;11.576;2022-12-18T02:40:33;-1.10;41.60
26035;DHT22;13809;48.632;11.576;2022-12-18T02:45:46;-1.10;41.50
26035;DHT22;13809;48.632;11.576;2022-12-18T02:50:56;-1.10;41.90
26035;DHT22;13809;48.632;11.576;2022-12-18T02:56:05;-1.00;41.90
26035;DHT22;13809;48.632;11.576;2022-12-18T03:01:15;-1.00;41.70
26035;DHT22;13809;48.632;11.576;2022-12-18T03:06:24;-0.90;41.80
26035;DHT22;13809;48.632;11.576;2022-12-18T03:11:32;-0.90;41.80
26035;DHT22;13809;48.632;11.576;2022-12-18T03:17:01;-0.90;42.50
26035;DHT22;13809;48.632;11.576;2022-12-18T03:22:07;-0.80;41.90
26035;DHT22;13809;48.632;11.576;2022-12-18T03:27:12;-0.80;41.70
26035;DHT22;13809;48.632;11.576;2022-12-18T03:32:23;-0.80;41.80
26035;DHT22;13809;48.632;11.576;2022-12-18T03:37:27;-0.70;41.90
26035;DHT22;13809;48.632;11.576;2022-12-18T03:42:35;-0.60;41.80
26035;DHT22;13809;48.632;11.576;2022-12-18T03:47:51;-0.60;41.80
26035;DHT22;13809;48.632;11.576;2022-12-18T03:52:59;-0.50;42.10
26035;DHT22;13809;48.632;11.576;2022-12-18T03:58:06;-0.60;41.70
26035;DHT22;13809;48.632;11.576;2022-12-18T04:03:12;-0.60;41.70
26035;DHT22;13809;48.632;11.576;2022-12-18T04:08:17;-0.60;41.70
26035;DHT22;13809;48.632;11.576;2022-12-18T04:13:24;-0.60;41.70
26035;DHT22;13809;48.632;11.576;2022-12-18T04:18:28;-0.60;41.90
26035;DHT22;13809;48.632;11.576;2022-12-18T04:23:31;-0.50;41.90
26035;DHT22;13809;48.632;11.576;2022-12-18T04:28:35;-0.50;41.80
26035;DHT22;13809;48.632;11.576;2022-12-18T04:33:39;-0.50;41.80
26035;DHT22;13809;48.632;11.576;2022-12-18T04:38:43;-0.50;41.90
26035;DHT22;13809;48.632;11.576;2022-12-18T04:43:46;-0.50;41.90
26035;DHT22;13809;48.632;11.576;2022-12-18T04:48:51;-0.40;41.90
26035;DHT22;13809;48.632;11.576;2022-12-18T04:53:54;-0.40;42.10
26035;DHT22;13809;48.632;11.576;2022-12-18T04:58:57;-0.30;41.90
26035;DHT22;13809;48.632;11.576;2022-12-18T05:04:02;-0.30;41.80
26035;DHT22;13809;48.632;11.576;2022-12-18T05:09:05;-0.30;41.80
26035;DHT22;13809;48.632;11.576;2022-12-18T05:14:08;-0.30;41.60
26035;DHT22;13809;48.632;11.576;2022-12-18T05:19:13;-0.30;41.80
26035;DHT22;13809;48.632;11.576;2022-12-18T05:24:16;-0.40;41.80
26035;DHT22;13809;48.632;11.576;2022-12-18T05:29:19;-0.40;41.80
26035;DHT22;13809;48.632;11.576;2022-12-18T05:34:23;-0.40;41.90
26035;DHT22;13809;48.632;11.576;2022-12-18T05:39:27;-0.30;42.00
26035;DHT22;13809;48.632;11.576;2022-12-18T05:44:30;-0.30;41.90
26035;DHT22;13809;48.632;11.576;2022-12-18T05:49:34;-0.30;41.80
26035;DHT22;13809;48.632;11.576;2022-12-18T05:54:37;-0.20;41.90
26035;DHT22;13809;48.632;11.576;2022-12-18T05:59:40;-0.20;41.80
26035;DHT22;13809;48.632;11.576;2022-12-18T06:04:45;-0.10;41.80
26035;DHT22;13809;48.632;11.576;2022-12-18T06:09:48;-0.20;41.70
26035;DHT22;13809;48.632;11.576;2022-12-18T06:14:51;-0.20;41.60
26035;DHT22;13809;48.632;11.576;2022-12-18T06:19:56;-0.20;41.70
26035;DHT22;13809;48.632;11.576;2022-12-18T06:24:59;-0.30;41.80
26035;DHT22;13809;48.632;11.576;2022-12-18T06:30:04;-0.30;41.80
26035;DHT22;13809;48.632;11.576;2022-12-18T06:35:09;-0.30;41.80
26035;DHT22;13809;48.632;11.576;2022-12-18T06:40:12;-0.20;42.00
26035;DHT22;13809;48.632;11.576;2022-12-18T06:45:15;-0.20;41.80
26035;DHT22;13809;48.632;11.576;2022-12-18T06:50:20;-0.20;41.90
26035;DHT22;13809;48.632;11.576;2022-12-18T06:55:23;-0.20;42.00
26035;DHT22;13809;48.632;11.576;2022-12-18T07:00:26;-0.20;42.00
26035;DHT22;13809;48.632;11.576;2022-12-18T07:05:30;-0.10;41.80
26035;DHT22;13809;48.632;11.576;2022-12-18T07:10:34;-0.10;41.80
26035;DHT22;13809;48.632;11.576;2022-12-18T07:15:49;-0.10;42.50
26035;DHT22;13809;48.632;11.576;2022-12-18T07:20:53;-0.10;41.80
26035;DHT22;13809;48.632;11.576;2022-12-18T07:26:00;-0.20;41.80
26035;DHT22;13809;48.632;11.576;2022-12-18T07:31:05;-0.20;41.90
26035;DHT22;13809;48.632;11.576;2022-12-18T07:36:10;-0.20;41.90
26035;DHT22;13809;48.632;11.576;2022-12-18T07:41:14;-0.30;41.90
26035;DHT22;13809;48.632;11.576;2022-12-18T07:46:17;-0.30;42.00
26035;DHT22;13809;48.632;11.576;2022-12-18T07:51:22;-0.30;42.00
26035;DHT22;13809;48.632;11.576;2022-12-18T07:56:25;-0.20;42.10
26035;DHT22;13809;48.632;11.576;2022-12-18T08:01:30;-0.20;42.10
26035;DHT22;13809;48.632;11.576;2022-12-18T08:06:35;-0.20;42.10
26035;DHT22;13809;48.632;11.576;2022-12-18T08:11:38;-0.20;42.20
26035;DHT22;13809;48.632;11.576;2022-12-18T08:16:41;-0.20;42.20
26035;DHT22;13809;48.632;11.576;2022-12-18T08:21:46;-0.10;42.20
26035;DHT22;13809;48.632;11.576;2022-12-18T08:26:49;-0.10;42.20
26035;DHT22;13809;48.632;11.576;2022-12-18T08:32:12;-0.10;42.10
26035;DHT22;13809;48.632;11.576;2022-12-18T08:37:16;0.00;42.20
26035;DHT22;13809;48.632;11.576;2022-12-18T08:42:19;0.00;42.20
26035;DHT22;13809;48.632;11.576;2022-12-18T08:47:40;0.00;42.00
26035;DHT22;13809;48.632;11.576;2022-12-18T08:52:44;0.00;41.90
26035;DHT22;13809;48.632;11.576;2022-12-18T08:57:48;0.10;42.00
26035;DHT22;13809;48.632;11.576;2022-12-18T09:02:52;0.10;42.00
26035;DHT22;13809;48.632;11.576;2022-12-18T09:07:56;0.10;42.00
26035;DHT22;13809;48.632;11.576;2022-12-18T09:12:59;0.10;41.90
26035;DHT22;13809;48.632;11.576;2022-12-18T09:18:03;0.10;41.90
26035;DHT22;13809;48.632;11.576;2022-12-18T09:23:08;0.10;41.90
26035;DHT22;13809;48.632;11.576;2022-12-18T09:28:13;0.10;42.00
26035;DHT22;13809;48.632;11.576;2022-12-18T09:33:18;0.10;42.00
26035;DHT22;13809;48.632;11.576;2022-12-18T09:38:23;0.10;42.00
26035;DHT22;13809;48.632;11.576;2022-12-18T09:43:29;0.10;42.00
26035;DHT22;13809;48.632;11.576;2022-12-18T09:48:35;0.10;42.00
26035;DHT22;13809;48.632;11.576;2022-12-18T09:53:42;0.20;42.00
26035;DHT22;13809;48.632;11.576;2022-12-18T09:58:52;0.20;42.00
26035;DHT22;13809;48.632;11.576;2022-12-18T10:03:57;0.30;42.00
26035;DHT22;13809;48.632;11.576;2022-12-18T10:09:05;0.30;42.00
26035;DHT22;13809;48.632;11.576;2022-12-18T10:14:17;0.40;42.00
26035;DHT22;13809;48.632;11.576;2022-12-18T10:19:35;0.40;42.10
26035;DHT22;13809;48.632;11.576;2022-12-18T10:24:47;0.40;41.80
26035;DHT22;13809;48.632;11.576;2022-12-18T10:29:52;0.40;41.80
26035;DHT22;13809;48.632;11.576;2022-12-18T10:34:57;0.50;41.90
26035;DHT22;13809;48.632;11.576;2022-12-18T10:40:09;0.50;41.80
26035;DHT22;13809;48.632;11.576;2022-12-18T10:45:20;0.60;41.80
26035;DHT22;13809;48.632;11.576;2022-12-18T10:50:28;0.60;41.60
26035;DHT22;13809;48.632;11.576;2022-12-18T10:55:55;0.60;41.70
26035;DHT22;13809;48.632;11.576;2022-12-18T11:01:08;0.60;41.90
26035;DHT22;13809;48.632;11.576;2022-12-18T11:06:13;0.70;41.90
26035;DHT22;13809;48.632;11.576;2022-12-18T11:11:20;0.70;41.70
26035;DHT22;13809;48.632;11.576;2022-12-18T11:16:24;0.80;41.90
26035;DHT22;13809;48.632;11.576;2022-12-18T11:21:28;0.80;41.80
26035;DHT22;13809;48.632;11.576;2022-12-18T11:26:35;1.00;41.80
26035;DHT22;13809;48.632;11.576;2022-12-18T11:31:38;1.00;41.90
26035;DHT22;13809;48.632;11.576;2022-12-18T11:36:44;1.10;41.90
26035;DHT22;13809;48.632;11.576;2022-12-18T11:41:51;1.20;41.90
26035;DHT22;13809;48.632;11.576;2022-12-18T11:47:23;1.20;41.60
26035;DHT22;13809;48.632;11.576;2022-12-18T11:52:31;1.20;41.20
26035;DHT22;13809;48.632;11.576;2022-12-18T11:57:43;1.20;41.30
26035;DHT22;13809;48.632;11.576;2022-12-18T12:03:18;1.20;41.30
26035;DHT22;13809;48.632;11.576;2022-12-18T12:08:33;1.20;41.30
26035;DHT22;13809;48.632;11.576;2022-12-18T12:13:51;1.20;41.50
26035;DHT22;13809;48.632;11.576;2022-12-18T12:19:05;1.20;41.30
26035;DHT22;13809;48.632;11.576;2022-12-18T12:24:34;1.20;41.30
26035;DHT22;13809;48.632;11.576;2022-12-18T12:29:49;1.20;41.40
26035;DHT22;13809;48.632;11.576;2022-12-18T12:35:01;1.30;41.60
26035;DHT22;13809;48.632;11.576;2022-12-18T12:40:15;1.30;41.50
26035;DHT22;13809;48.632;11.576;2022-12-18T12:45:45;1.40;41.30
26035;DHT22;13809;48.632;11.576;2022-12-18T12:50:52;1.40;41.40
26035;DHT22;13809;48.632;11.576;2022-12-18T12:55:56;1.50;41.40
26035;DHT22;13809;48.632;11.576;2022-12-18T13:01:10;1.50;41.40
26035;DHT22;13809;48.632;11.576;2022-12-18T13:06:32;1.50;41.20
26035;DHT22;13809;48.632;11.576;2022-12-18T13:11:39;1.70;41.40
26035;DHT22;13809;48.632;11.576;2022-12-18T13:17:28;1.60;41.10
26035;DHT22;13809;48.632;11.576;2022-12-18T13:22:35;1.60;41.00
26035;DHT22;13809;48.632;11.576;2022-12-18T13:28:06;1.70;41.10
26035;DHT22;13809;48.632;11.576;2022-12-18T13:39:24;1.70;40.70
26035;DHT22;13809;48.632;11.576;2022-12-18T13:44:37;1.60;40.80
26035;DHT22;13809;48.632;11.576;2022-12-18T13:49:44;1.50;40.80
26035;DHT22;13809;48.632;11.576;2022-12-18T13:54:51;1.40;40.60
26035;DHT22;13809;48.632;11.576;2022-12-18T13:59:56;1.20;40.50
26035;DHT22;13809;48.632;11.576;2022-12-18T14:05:00;1.10;40.70
26035;DHT22;13809;48.632;11.576;2022-12-18T14:10:12;1.10;40.90
26035;DHT22;13809;48.632;11.576;2022-12-18T14:15:40;1.00;41.10
26035;DHT22;13809;48.632;11.576;2022-12-18T14:20:48;1.00;41.10
26035;DHT22;13809;48.632;11.576;2022-12-18T14:25:55;1.00;41.00
26035;DHT22;13809;48.632;11.576;2022-12-18T14:31:17;1.10;41.30
26035;DHT22;13809;48.632;11.576;2022-12-18T14:36:23;1.00;41.10
26035;DHT22;13809;48.632;11.576;2022-12-18T14:41:28;1.00;41.10
26035;DHT22;13809;48.632;11.576;2022-12-18T14:46:35;0.90;41.10
26035;DHT22;13809;48.632;11.576;2022-12-18T14:51:38;0.90;41.30
26035;DHT22;13809;48.632;11.576;2022-12-18T14:56:45;0.90;41.30
26035;DHT22;13809;48.632;11.576;2022-12-18T15:01:57;0.90;42.00
26035;DHT22;13809;48.632;11.576;2022-12-18T15:07:05;1.00;42.10
26035;DHT22;13809;48.632;11.576;2022-12-18T15:12:26;1.00;41.40
26035;DHT22;13809;48.632;11.576;2022-12-18T15:17:31;1.00;41.20
26035;DHT22;13809;48.632;11.576;2022-12-18T15:22:35;1.00;40.90
26035;DHT22;13809;48.632;11.576;2022-12-18T15:27:47;0.90;40.80
26035;DHT22;13809;48.632;11.576;2022-12-18T15:32:50;0.80;40.90
26035;DHT22;13809;48.632;11.576;2022-12-18T15:37:54;0.70;40.90
26035;DHT22;13809;48.632;11.576;2022-12-18T15:42:59;0.70;40.90
26035;DHT22;13809;48.632;11.576;2022-12-18T15:48:21;0.60;40.90
26035;DHT22;13809;48.632;11.576;2022-12-18T15:53:25;0.50;41.10
26035;DHT22;13809;48.632;11.576;2022-12-18T15:58:32;0.60;41.20
26035;DHT22;13809;48.632;11.576;2022-12-18T16:03:35;0.50;41.20
26035;DHT22;13809;48.632;11.576;2022-12-18T16:08:39;0.50;41.00
26035;DHT22;13809;48.632;11.576;2022-12-18T16:13:44;0.40;40.80
26035;DHT22;13809;48.632;11.576;2022-12-18T16:18:47;0.30;40.90
26035;DHT22;13809;48.632;11.576;2022-12-18T16:23:50;0.30;41.10
26035;DHT22;13809;48.632;11.576;2022-12-18T16:28:55;0.30;41.20
26035;DHT22;13809;48.632;11.576;2022-12-18T16:34:18;0.40;41.30
26035;DHT22;13809;48.632;11.576;2022-12-18T16:39:24;0.30;41.30
26035;DHT22;13809;48.632;11.576;2022-12-18T16:44:29;0.30;41.10
26035;DHT22;13809;48.632;11.576;2022-12-18T16:49:32;0.30;41.10
26035;DHT22;13809;48.632;11.576;2022-12-18T16:54:35;0.30;41.20
26035;DHT22;13809;48.632;11.576;2022-12-18T16:59:39;0.30;41.20
26035;DHT22;13809;48.632;11.576;2022-12-18T17:04:43;0.30;41.10
26035;DHT22;13809;48.632;11.576;2022-12-18T17:09:46;0.40;41.10
26035;DHT22;13809;48.632;11.576;2022-12-18T17:14:52;0.40;41.00
26035;DHT22;13809;48.632;11.576;2022-12-18T17:19:55;0.30;40.80
26035;DHT22;13809;48.632;11.576;2022-12-18T17:24:58;0.20;40.90
26035;DHT22;13809;48.632;11.576;2022-12-18T17:30:04;0.10;40.90
26035;DHT22;13809;48.632;11.576;2022-12-18T17:35:07;0.10;41.20
26035;DHT22;13809;48.632;11.576;2022-12-18T17:40:11;0.10;41.30
26035;DHT22;13809;48.632;11.576;2022-12-18T17:45:15;0.10;41.30
26035;DHT22;13809;48.632;11.576;2022-12-18T17:50:19;0.10;41.20
26035;DHT22;13809;48.632;11.576;2022-12-18T17:55:22;0.10;41.40
26035;DHT22;13809;48.632;11.576;2022-12-18T18:00:27;0.10;41.30
26035;DHT22;13809;48.632;11.576;2022-12-18T18:05:30;0.20;41.30
26035;DHT22;13809;48.632;11.576;2022-12-18T18:10:34;0.10;41.20
26035;DHT22;13809;48.632;11.576;2022-12-18T18:15:40;0.10;41.30
26035;DHT22;13809;48.632;11.576;2022-12-18T18:20:43;0.10;41.30
26035;DHT22;13809;48.632;11.576;2022-12-18T18:25:46;0.10;41.30
26035;DHT22;13809;48.632;11.576;2022-12-18T18:30:51;0.10;41.30
26035;DHT22;13809;48.632;11.576;2022-12-18T18:35:55;0.10;41.30
26035;DHT22;13809;48.632;11.576;2022-12-18T18:40:58;0.00;41.30
26035;DHT22;13809;48.632;11.576;2022-12-18T18:46:04;0.00;41.40
26035;DHT22;13809;48.632;11.576;2022-12-18T18:51:10;0.00;41.50
26035;DHT22;13809;48.632;11.576;2022-12-18T18:56:23;0.00;41.60
26035;DHT22;13809;48.632;11.576;2022-12-18T19:01:49;0.00;41.60
26035;DHT22;13809;48.632;11.576;2022-12-18T19:06:53;0.10;41.60
26035;DHT22;13809;48.632;11.576;2022-12-18T19:11:58;0.10;41.60
26035;DHT22;13809;48.632;11.576;2022-12-18T19:17:19;0.20;41.50
26035;DHT22;13809;48.632;11.576;2022-12-18T19:22:30;0.20;41.50
26035;DHT22;13809;48.632;11.576;2022-12-18T19:27:33;0.20;41.50
26035;DHT22;13809;48.632;11.576;2022-12-18T19:32:42;0.40;41.70
26035;DHT22;13809;48.632;11.576;2022-12-18T19:37:45;0.20;42.20
26035;DHT22;13809;48.632;11.576;2022-12-18T19:42:48;0.30;41.60
26035;DHT22;13809;48.632;11.576;2022-12-18T19:47:53;0.20;41.40
26035;DHT22;13809;48.632;11.576;2022-12-18T19:53:05;0.20;41.60
26035;DHT22;13809;48.632;11.576;2022-12-18T19:58:10;0.20;41.60
26035;DHT22;13809;48.632;11.576;2022-12-18T20:03:14;0.20;41.60
26035;DHT22;13809;48.632;11.576;2022-12-18T20:08:31;0.20;41.70
26035;DHT22;13809;48.632;11.576;2022-12-18T20:13:37;0.20;41.70
26035;DHT22;13809;48.632;11.576;2022-12-18T20:18:42;0.20;41.80
26035;DHT22;13809;48.632;11.576;2022-12-18T20:23:45;0.30;41.90
26035;DHT22;13809;48.632;11.576;2022-12-18T20:28:49;0.30;41.70
26035;DHT22;13809;48.632;11.576;2022-12-18T20:33:54;0.30;41.60
26035;DHT22;13809;48.632;11.576;2022-12-18T20:39:02;0.40;41.80
26035;DHT22;13809;48.632;11.576;2022-12-18T20:44:10;0.30;41.70
26035;DHT22;13809;48.632;11.576;2022-12-18T20:49:26;0.30;41.70
26035;DHT22;13809;48.632;11.576;2022-12-18T20:54:29;0.40;41.80
26035;DHT22;13809;48.632;11.576;2022-12-18T20:59:32;0.40;41.60
26035;DHT22;13809;48.632;11.576;2022-12-18T21:04:37;0.40;41.50
26035;DHT22;13809;48.632;11.576;2022-12-18T21:09:40;0.40;41.60
26035;DHT22;13809;48.632;11.576;2022-12-18T21:14:44;0.30;41.50
26035;DHT22;13809;48.632;11.576;2022-12-18T21:19:51;0.30;41.60
26035;DHT22;13809;48.632;11.576;2022-12-18T21:24:55;0.30;41.60
26035;DHT22;13809;48.632;11.576;2022-12-18T21:29:59;0.30;41.60
26035;DHT22;13809;48.632;11.576;2022-12-18T21:35:04;0.30;41.50
26035;DHT22;13809;48.632;11.576;2022-12-18T21:40:08;0.30;41.50
26035;DHT22;13809;48.632;11.576;2022-12-18T21:45:12;0.30;41.60
26035;DHT22;13809;48.632;11.576;2022-12-18T21:50:17;0.30;41.50
26035;DHT22;13809;48.632;11.576;2022-12-18T21:55:20;0.30;41.30
26035;DHT22;13809;48.632;11.576;2022-12-18T22:00:23;0.40;41.30
26035;DHT22;13809;48.632;11.576;2022-12-18T22:05:28;0.20;41.20
26035;DHT22;13809;48.632;11.576;2022-12-18T22:10:31;0.20;41.30
26035;DHT22;13809;48.632;11.576;2022-12-18T22:15:35;0.20;41.50
26035;DHT22;13809;48.632;11.576;2022-12-18T22:20:39;0.20;41.60
26035;DHT22;13809;48.632;11.576;2022-12-18T22:25:42;0.20;41.30
26035;DHT22;13809;48.632;11.576;2022-12-18T22:30:45;0.20;41.10
26035;DHT22;13809;48.632;11.576;2022-12-18T22:35:50;0.10;41.10
26035;DHT22;13809;48.632;11.576;2022-12-18T22:40:54;0.10;41.00
26035;DHT22;13809;48.632;11.576;2022-12-18T22:45:57;0.10;41.10
26035;DHT22;13809;48.632;11.576;2022-12-18T22:51:02;0.00;40.60
26035;DHT22;13809;48.632;11.576;2022-12-18T22:56:06;-0.10;40.60
26035;DHT22;13809;48.632;11.576;2022-12-18T23:01:17;-0.20;40.70
26035;DHT22;13809;48.632;11.576;2022-12-18T23:06:24;-0.30;40.80
26035;DHT22;13809;48.632;11.576;2022-12-18T23:11:28;-0.40;40.90
26035;DHT22;13809;48.632;11.576;2022-12-18T23:16:31;-0.30;41.10
26035;DHT22;13809;48.632;11.576;2022-12-18T23:21:37;-0.40;41.00
26035;DHT22;13809;48.632;11.576;2022-12-18T23:26:40;-0.40;40.90
26035;DHT22;13809;48.632;11.576;2022-12-18T23:31:43;-0.40;40.80
26035;DHT22;13809;48.632;11.576;2022-12-18T23:36:48;-0.40;40.80
26035;DHT22;13809;48.632;11.576;2022-12-18T23:41:57;-0.40;40.70
26035;DHT22;13809;48.632;11.576;2022-12-18T23:47:00;-0.50;40.80
26035;DHT22;13809;48.632;11.576;2022-12-18T23:52:09;-0.50;40.90
26035;DHT22;13809;48.632;11.576;2022-12-18T23:57:12;-0.50;40.90
